createdAt,value
2022-08-03T00:01:25.300Z,15.86
2022-08-03T00:06:44.309Z,15.73
2022-08-03T00:12:03.289Z,15.58
2022-08-03T00:17:22.711Z,15.43
2022-08-03T00:22:53.529Z,15.34
2022-08-03T00:28:11.538Z,15.34
2022-08-03T00:33:19.740Z,15.31
2022-08-03T00:38:38.790Z,15.24
2022-08-03T00:43:58.437Z,15.22
2022-08-03T00:49:17.264Z,15.14
2022-08-03T00:54:36.281Z,15.11
2022-08-03T00:59:55.411Z,15.09
2022-08-03T01:05:14.399Z,14.95
2022-08-03T01:10:45.103Z,14.83
2022-08-03T01:15:52.862Z,14.77
2022-08-03T01:21:12.556Z,14.87
2022-08-03T01:26:32.272Z,14.8
2022-08-03T01:32:52.060Z,14.81
2022-08-03T01:37:21.362Z,14.73
2022-08-03T01:42:29.145Z,14.6
2022-08-03T01:47:48.505Z,14.44
2022-08-03T01:53:08.170Z,14.36
2022-08-03T01:58:27.809Z,14.36
2022-08-03T02:03:53.559Z,14.3
2022-08-03T02:09:05.931Z,14.2
2022-08-03T02:14:25.600Z,14.18
2022-08-03T02:22:58.657Z,14.13
2022-08-03T02:27:15.179Z,14.19
2022-08-03T02:30:23.049Z,14.19
2022-08-03T02:35:42.410Z,14.15
2022-08-03T02:41:02.097Z,14.01
2022-08-03T02:46:21.245Z,13.94
2022-08-03T02:51:40.321Z,13.83
2022-08-03T02:56:59.636Z,13.71
2022-08-03T03:02:18.725Z,13.64
2022-08-03T03:10:53.226Z,13.53
2022-08-03T03:12:56.417Z,13.44
2022-08-03T03:18:18.929Z,13.4
2022-08-03T03:23:34.827Z,13.34
2022-08-03T03:28:53.983Z,13.3
2022-08-03T03:34:13.197Z,13.24
2022-08-03T03:39:32.586Z,13.23
2022-08-03T03:44:51.832Z,13.27
2022-08-03T03:50:22.664Z,13.26
2022-08-03T03:55:30.181Z,13.19
2022-08-03T04:00:49.270Z,13.13
2022-08-03T04:06:08.399Z,13.17
2022-08-03T04:11:29.424Z,13.24
2022-08-03T04:16:46.482Z,13.26
2022-08-03T04:22:06.004Z,13.26
2022-08-03T04:27:25.092Z,13.31
2022-08-03T04:32:45.987Z,13.36
2022-08-03T04:38:04.015Z,13.41
2022-08-03T04:43:23.734Z,13.44
2022-08-03T04:48:44.668Z,13.4
2022-08-03T04:54:02.411Z,13.43
2022-08-03T04:59:21.176Z,13.48
2022-08-03T05:07:54.228Z,13.53
2022-08-03T05:10:01.635Z,13.79
2022-08-03T05:15:18.949Z,14.44
2022-08-03T05:20:38.326Z,15.15
2022-08-03T05:25:57.248Z,15.76
2022-08-03T05:31:16.525Z,16.24
2022-08-03T05:36:35.805Z,16.79
2022-08-03T05:41:55.035Z,17.43
2022-08-03T05:47:14.544Z,17.84
2022-08-03T05:52:33.627Z,18.21
2022-08-03T05:57:52.364Z,18.54
2022-08-03T06:03:11.011Z,18.7
2022-08-03T06:08:30.002Z,19
2022-08-03T06:13:48.789Z,19.2
2022-08-03T06:19:08.091Z,19.48
2022-08-03T06:24:26.956Z,20.06
2022-08-03T06:29:46.079Z,20.46
2022-08-03T06:35:04.880Z,20.78
2022-08-03T06:40:24.508Z,21.26
2022-08-03T06:45:42.638Z,21.29
2022-08-03T06:51:01.934Z,21.61
2022-08-03T06:56:21.233Z,21.97
2022-08-03T07:01:40.179Z,22.11
2022-08-03T07:06:59.355Z,22.57
2022-08-03T07:12:18.611Z,23.18
2022-08-03T07:17:37.149Z,23.44
2022-08-03T07:22:56.540Z,23.76
2022-08-03T07:31:34.173Z,24.2
2022-08-03T07:40:14.670Z,25.28
2022-08-03T07:44:19.207Z,25.94
2022-08-03T07:49:31.800Z,26.13
2022-08-03T07:54:51.166Z,26.45
2022-08-03T08:00:10.116Z,26.72
2022-08-03T08:05:28.972Z,27.06
2022-08-03T08:10:56.633Z,27.37
2022-08-03T08:16:07.569Z,27.78
2022-08-03T08:24:40.583Z,28.28
2022-08-03T08:28:57.140Z,29.06
2022-08-03T08:33:22.925Z,29.55
2022-08-03T08:42:47.924Z,29.89
2022-08-03T08:48:03.493Z,30.26
2022-08-03T08:53:25.461Z,30.71
2022-08-03T08:58:39.304Z,31.07
2022-08-03T09:03:58.706Z,31.15
2022-08-03T09:09:28.559Z,31.5
2022-08-03T09:17:51.202Z,31.91
2022-08-03T09:25:24.167Z,31.96
2022-08-03T09:30:35.044Z,32.61
2022-08-03T09:35:53.874Z,33.02
2022-08-03T09:41:11.221Z,32.75
2022-08-03T09:46:41.012Z,32.39
2022-08-03T09:55:03.109Z,32.91
2022-08-03T09:57:08.899Z,33.18
2022-08-03T10:07:46.420Z,33.43
2022-08-03T10:17:36.186Z,33.05
2022-08-03T10:21:50.032Z,32.52
2022-08-03T10:25:55.546Z,32.28
2022-08-03T10:29:02.695Z,32.68
2022-08-03T10:34:21.931Z,32.78
2022-08-03T10:39:41.065Z,32.41
2022-08-03T10:45:10.115Z,32.89
2022-08-03T10:53:33.180Z,33.75
2022-08-03T10:57:50.029Z,33.63
2022-08-03T11:06:22.745Z,33.25
2022-08-03T11:11:35.426Z,32.87
2022-08-03T11:16:54.738Z,33.41
2022-08-03T11:22:14.289Z,33.74
2022-08-03T11:27:33.757Z,33.88
2022-08-03T11:36:06.830Z,33.43
2022-08-03T11:38:12.729Z,33.29
2022-08-03T11:43:32.086Z,33.58
2022-08-03T11:48:51.284Z,33.88
2022-08-03T11:54:10.226Z,34.66
2022-08-03T11:59:29.537Z,34.96
2022-08-03T12:08:06.084Z,34.45
2022-08-03T12:20:46.208Z,33.73
2022-08-03T12:26:05.530Z,34.56
2022-08-03T12:31:24.175Z,35.09
2022-08-03T12:36:43.128Z,34.74
2022-08-03T12:42:02.143Z,35
2022-08-03T12:47:21.213Z,34.87
2022-08-03T12:52:39.886Z,34.89
2022-08-03T12:57:59.009Z,35.03
2022-08-03T13:03:38.792Z,35.15
2022-08-03T13:08:36.626Z,34.79
2022-08-03T13:17:09.680Z,35.29
2022-08-03T13:19:15.230Z,35.84
2022-08-03T13:24:33.846Z,35.75
2022-08-03T13:30:02.840Z,35.47
2022-08-03T13:35:12.201Z,35.15
2022-08-03T13:40:33.454Z,35.48
2022-08-03T13:45:53.681Z,35.77
2022-08-03T13:51:11.649Z,35.88
2022-08-03T13:56:41.314Z,35.54
2022-08-03T14:05:02.404Z,34.41
2022-08-03T14:07:07.999Z,34.02
2022-08-03T14:12:26.850Z,34.66
2022-08-03T14:16:43.538Z,34.83
2022-08-03T14:23:43.861Z,35.43
2022-08-03T14:29:02.685Z,35.03
2022-08-03T14:34:22.153Z,35.15
2022-08-03T14:40:01.201Z,35.66
2022-08-03T14:45:03.562Z,36.09
2022-08-03T14:50:35.247Z,36.25
2022-08-03T14:55:51.408Z,36.28
2022-08-03T15:00:58.477Z,35.66
2022-08-03T15:06:17.256Z,35.41
2022-08-03T15:11:36.212Z,35.78
2022-08-03T15:16:54.909Z,36.06
2022-08-03T15:22:14.494Z,35.84
2022-08-03T15:27:33.780Z,35.75
2022-08-03T15:32:53.321Z,35.99
2022-08-03T15:38:12.629Z,36.34
2022-08-03T15:43:32.094Z,36.13
2022-08-03T15:52:05.166Z,35.93
2022-08-03T15:54:10.311Z,35.86
2022-08-03T15:59:29.654Z,35.74
2022-08-03T16:04:48.469Z,35.78
2022-08-03T16:10:07.361Z,35.68
2022-08-03T16:15:26.652Z,35.52
2022-08-03T16:20:46.012Z,35.64
2022-08-03T16:26:08.760Z,35.41
2022-08-03T16:31:34.145Z,35.38
2022-08-03T16:39:57.195Z,35.58
2022-08-03T16:42:02.018Z,35.7
2022-08-03T16:47:22.024Z,35.41
2022-08-03T16:52:41.242Z,35.25
2022-08-03T16:58:00.439Z,34.75
2022-08-03T17:03:20.745Z,34.52
2022-08-03T17:08:38.043Z,34.45
2022-08-03T17:13:57.006Z,34.41
2022-08-03T17:19:16.583Z,34.14
2022-08-03T17:24:36.906Z,33.98
2022-08-03T17:29:55.356Z,33.87
2022-08-03T17:35:15.008Z,33.84
2022-08-03T17:40:33.847Z,33.7
2022-08-03T17:45:54.932Z,33.54
2022-08-03T17:51:15.365Z,32.98
2022-08-03T17:56:40.541Z,32.16
2022-08-03T18:01:57.573Z,31.51
2022-08-03T18:07:11.470Z,31.03
2022-08-03T18:15:43.191Z,30.96
2022-08-03T18:20:01.741Z,31
2022-08-03T18:24:16.249Z,30.69
2022-08-03T18:28:32.772Z,30.47
2022-08-03T18:39:05.463Z,29.57
2022-08-03T18:44:37.838Z,29.34
2022-08-03T18:49:43.566Z,29.27
2022-08-03T18:55:09.619Z,29.31
2022-08-03T19:00:24.181Z,29.24
2022-08-03T19:05:57.880Z,29.07
2022-08-03T19:11:00.676Z,28.73
2022-08-03T19:16:18.769Z,28.22
2022-08-03T19:21:37.906Z,27.78
2022-08-03T19:26:57.313Z,27.34
2022-08-03T19:32:16.452Z,27.1
2022-08-03T19:37:38.744Z,26.88
2022-08-03T19:42:54.196Z,26.53
2022-08-03T19:48:13.502Z,26.24
2022-08-03T19:53:34.722Z,25.92
2022-08-03T19:58:53.183Z,25.66
2022-08-03T20:04:11.023Z,25.46
2022-08-03T20:09:30.645Z,25.33
2022-08-03T20:14:50.053Z,25.07
2022-08-03T20:20:09.676Z,24.75
2022-08-03T20:25:37.528Z,24.46
2022-08-03T20:30:47.747Z,24.37
2022-08-03T20:39:20.602Z,24.24
2022-08-03T20:46:53.009Z,23.81
2022-08-03T20:52:03.962Z,23.61
2022-08-03T20:57:23.164Z,23.43
2022-08-03T21:02:42.139Z,23.15
2022-08-03T21:11:27.237Z,22.94
2022-08-03T21:13:00.169Z,29.98
2022-08-03T21:15:59.765Z,22.82
2022-08-03T21:18:39.956Z,22.63
2022-08-03T21:23:58.768Z,22.48
2022-08-03T21:29:18.249Z,22.36
2022-08-03T21:34:37.064Z,22.31
2022-08-03T21:40:05.969Z,22.18
2022-08-03T21:45:17.502Z,22.01
2022-08-03T21:50:34.677Z,21.7
2022-08-03T21:55:53.769Z,21.35
2022-08-03T22:01:23.588Z,21.09
2022-08-03T22:06:31.758Z,21.02
2022-08-03T22:11:50.842Z,20.86
2022-08-03T22:17:09.688Z,20.63
2022-08-03T22:22:28.897Z,20.43
2022-08-03T22:27:58.886Z,20.31
2022-08-03T22:33:10.980Z,20.49
2022-08-03T22:38:26.198Z,20.55
2022-08-03T22:43:45.347Z,20.58
2022-08-03T22:49:04.367Z,20.48
2022-08-03T22:54:23.423Z,20.31
2022-08-03T23:02:56.509Z,20.1
2022-08-03T23:07:13.058Z,19.92
2022-08-03T23:10:20.143Z,19.82
2022-08-03T23:15:39.848Z,19.65
2022-08-03T23:20:59.017Z,19.48
2022-08-03T23:26:18.045Z,19.48
2022-08-03T23:31:37.218Z,19.39
2022-08-03T23:36:56.355Z,19.2
2022-08-03T23:42:15.484Z,19.15
2022-08-03T23:47:46.197Z,19.14
2022-08-03T23:52:54.048Z,19.07
2022-08-03T23:58:13.175Z,19.04
